Time;durP1;ratioP1;P1;durP2;ratioP2;P2;SDS_P1;SDS_P2;PMS_P1;PMS_P2;Temp;Humidity;BMP_temperature;BMP_pressure;BME280_temperature;BME280_humidity;BME280_pressure;Samples;Min_cycle;Max_cycle;Signal;HPM_P1;HPM_P2
2021/05/16 00:00:24;;;;;;;1.23;0.57;;;;;;;;;;5038621;28;20831;-59
2021/05/16 00:02:50;;;;;;;1.58;0.60;;;;;;;;;;5030468;28;20466;-59
2021/05/16 00:05:16;;;;;;;1.50;0.70;;;;;;;;;;5063592;28;20033;-59
2021/05/16 00:07:41;;;;;;;1.10;0.63;;;;;;;;;;5061516;28;20038;-59
2021/05/16 00:10:08;;;;;;;0.93;0.60;;;;;;;;;;5028607;28;20038;-59
2021/05/16 00:12:33;;;;;;;1.30;0.90;;;;;;;;;;5037002;28;20579;-60
2021/05/16 00:14:59;;;;;;;1.15;0.60;;;;;;;;;;5032113;28;20389;-59
2021/05/16 00:17:24;;;;;;;1.70;0.60;;;;;;;;;;5030540;28;20034;-59
2021/05/16 00:19:50;;;;;;;1.52;0.52;;;;;;;;;;5032747;28;20132;-59
2021/05/16 00:22:15;;;;;;;2.10;0.60;;;;;;;;;;5029637;28;20065;-59
2021/05/16 00:24:41;;;;;;;1.98;0.77;;;;;;;;;;5052707;28;20493;-59
2021/05/16 00:27:06;;;;;;;1.38;0.50;;;;;;;;;;5033234;28;20062;-59
2021/05/16 00:29:31;;;;;;;1.42;0.60;;;;;;;;;;5033307;28;21144;-59
2021/05/16 00:31:57;;;;;;;2.40;0.80;;;;;;;;;;5034409;28;20120;-59
2021/05/16 00:34:22;;;;;;;1.65;0.68;;;;;;;;;;5032330;28;20065;-59
2021/05/16 00:36:48;;;;;;;1.42;0.70;;;;;;;;;;5032783;28;20491;-59
2021/05/16 00:39:14;;;;;;;2.08;0.65;;;;;;;;;;5032440;28;20049;-59
2021/05/16 00:41:39;;;;;;;1.38;0.60;;;;;;;;;;5032644;28;20061;-59
2021/05/16 00:44:05;;;;;;;1.95;0.73;;;;;;;;;;5049392;28;20564;-58
2021/05/16 00:46:30;;;;;;;1.77;0.70;;;;;;;;;;5034484;28;20034;-59
2021/05/16 00:48:56;;;;;;;1.55;0.68;;;;;;;;;;5050255;28;20677;-59
2021/05/16 00:51:21;;;;;;;2.25;0.70;;;;;;;;;;5015396;28;20025;-59
2021/05/16 00:53:47;;;;;;;2.50;0.77;;;;;;;;;;5033308;28;20583;-59
2021/05/16 00:56:14;;;;;;;2.05;0.88;;;;;;;;;;5035696;28;20034;-59
2021/05/16 00:58:40;;;;;;;1.45;0.75;;;;;;;;;;5033154;28;20034;-59
2021/05/16 01:01:09;;;;;;;1.52;0.82;;;;;;;;;;5038025;28;20188;-59
2021/05/16 01:03:36;;;;;;;2.08;0.77;;;;;;;;;;5041432;28;20042;-60
2021/05/16 01:06:02;;;;;;;2.63;0.70;;;;;;;;;;5017979;28;20528;-59
2021/05/16 01:08:33;;;;;;;0.98;0.52;;;;;;;;;;5031251;28;20072;-59
2021/05/16 01:10:58;;;;;;;1.95;0.60;;;;;;;;;;5032321;28;20041;-59
2021/05/16 01:13:26;;;;;;;1.55;0.75;;;;;;;;;;5034204;28;20107;-59
2021/05/16 01:15:51;;;;;;;1.52;0.60;;;;;;;;;;5065387;28;20092;-59
2021/05/16 01:18:18;;;;;;;1.70;0.77;;;;;;;;;;5032181;28;20083;-59
2021/05/16 01:20:46;;;;;;;2.25;0.80;;;;;;;;;;5048193;28;20045;-60
2021/05/16 01:23:14;;;;;;;1.80;0.80;;;;;;;;;;5032045;28;20038;-59
2021/05/16 01:25:46;;;;;;;0.93;0.68;;;;;;;;;;5049499;28;20085;-60
2021/05/16 01:28:14;;;;;;;1.63;0.90;;;;;;;;;;5058064;28;20038;-59
2021/05/16 01:30:39;;;;;;;1.70;0.80;;;;;;;;;;5019580;28;20029;-59
2021/05/16 01:33:05;;;;;;;1.75;0.80;;;;;;;;;;5031500;28;20772;-59
2021/05/16 01:35:31;;;;;;;1.67;0.60;;;;;;;;;;5058096;28;20036;-59
2021/05/16 01:37:56;;;;;;;1.52;0.80;;;;;;;;;;5025089;28;20069;-59
2021/05/16 01:40:23;;;;;;;2.47;0.77;;;;;;;;;;5032196;28;20967;-59
2021/05/16 01:42:54;;;;;;;2.13;0.70;;;;;;;;;;5024080;28;20034;-59
2021/05/16 01:45:24;;;;;;;1.08;0.60;;;;;;;;;;5032484;28;20037;-59
2021/05/16 01:47:51;;;;;;;1.98;0.85;;;;;;;;;;5031988;28;20049;-59
2021/05/16 01:50:18;;;;;;;1.15;0.70;;;;;;;;;;5032719;28;20053;-60
2021/05/16 01:52:44;;;;;;;1.98;0.88;;;;;;;;;;5034092;28;20069;-60
2021/05/16 01:55:10;;;;;;;1.60;0.80;;;;;;;;;;5033724;28;20041;-59
2021/05/16 01:57:36;;;;;;;1.95;0.80;;;;;;;;;;5033179;28;20041;-60
2021/05/16 02:00:04;;;;;;;1.60;0.70;;;;;;;;;;5033197;28;20040;-59
2021/05/16 02:02:30;;;;;;;2.25;0.90;;;;;;;;;;5016930;28;20041;-60
2021/05/16 02:04:55;;;;;;;2.55;0.90;;;;;;;;;;5024534;28;20512;-60
2021/05/16 02:07:21;;;;;;;2.40;1.02;;;;;;;;;;5030747;28;20498;-59
2021/05/16 02:09:47;;;;;;;1.80;0.80;;;;;;;;;;5058357;28;20034;-59
2021/05/16 02:12:16;;;;;;;2.13;0.70;;;;;;;;;;5064925;28;20037;-59
2021/05/16 02:14:42;;;;;;;1.10;0.60;;;;;;;;;;5035767;28;20038;-59
2021/05/16 02:17:10;;;;;;;2.05;1.00;;;;;;;;;;5037485;28;20113;-60
2021/05/16 02:19:36;;;;;;;2.75;1.05;;;;;;;;;;5040808;28;20042;-60
2021/05/16 02:22:01;;;;;;;2.78;0.90;;;;;;;;;;5063962;28;20037;-59
2021/05/16 02:24:31;;;;;;;2.17;0.82;;;;;;;;;;5030715;28;20157;-59
2021/05/16 02:27:06;;;;;;;2.80;1.10;;;;;;;;;;5030896;28;20413;-59
2021/05/16 02:29:40;;;;;;;3.40;1.20;;;;;;;;;;5032667;28;20765;-60
2021/05/16 02:32:07;;;;;;;2.45;1.02;;;;;;;;;;5064030;28;20534;-59
2021/05/16 02:34:33;;;;;;;2.30;1.10;;;;;;;;;;5063716;28;20049;-60
2021/05/16 02:36:59;;;;;;;2.75;1.10;;;;;;;;;;5031279;28;20045;-60
2021/05/16 02:39:25;;;;;;;2.55;1.00;;;;;;;;;;5037577;28;20033;-59
2021/05/16 02:41:50;;;;;;;2.63;1.10;;;;;;;;;;5031651;28;20553;-62
2021/05/16 02:44:18;;;;;;;2.65;1.00;;;;;;;;;;5016684;28;20113;-59
2021/05/16 02:46:45;;;;;;;3.40;1.38;;;;;;;;;;5062549;28;20038;-60
2021/05/16 02:49:11;;;;;;;3.25;1.23;;;;;;;;;;5030320;28;20034;-60
2021/05/16 02:51:37;;;;;;;3.40;1.50;;;;;;;;;;5030924;28;20767;-59
2021/05/16 02:54:03;;;;;;;5.28;1.35;;;;;;;;;;5030272;28;20040;-59
2021/05/16 02:56:29;;;;;;;2.83;1.20;;;;;;;;;;5031313;28;20585;-60
2021/05/16 02:58:56;;;;;;;3.63;1.25;;;;;;;;;;5033161;28;20556;-59
2021/05/16 03:01:22;;;;;;;3.10;1.10;;;;;;;;;;5040204;28;20052;-59
2021/05/16 03:03:50;;;;;;;2.70;1.17;;;;;;;;;;5034007;28;20038;-59
2021/05/16 03:06:16;;;;;;;3.65;1.50;;;;;;;;;;5061966;27;20383;-60
2021/05/16 03:08:41;;;;;;;3.65;1.45;;;;;;;;;;5032620;28;20452;-59
2021/05/16 03:11:07;;;;;;;2.53;1.20;;;;;;;;;;5031856;28;20077;-60
2021/05/16 03:13:34;;;;;;;3.00;1.30;;;;;;;;;;5019922;28;20042;-59
2021/05/16 03:16:07;;;;;;;3.17;1.30;;;;;;;;;;5031407;28;20116;-60
2021/05/16 03:18:33;;;;;;;3.45;1.20;;;;;;;;;;5031410;28;20453;-59
2021/05/16 03:20:59;;;;;;;5.68;2.10;;;;;;;;;;5031107;28;20048;-59
2021/05/16 03:23:25;;;;;;;2.42;1.23;;;;;;;;;;5065046;27;20030;-59
2021/05/16 03:25:51;;;;;;;3.10;1.25;;;;;;;;;;5032019;28;20042;-60
2021/05/16 03:28:16;;;;;;;3.25;1.20;;;;;;;;;;5063013;28;20494;-59
2021/05/16 03:30:42;;;;;;;4.10;1.35;;;;;;;;;;5031237;27;20034;-59
2021/05/16 03:33:07;;;;;;;4.20;1.52;;;;;;;;;;5032208;28;20030;-59
2021/05/16 03:35:33;;;;;;;2.90;1.30;;;;;;;;;;5032721;28;20026;-59
2021/05/16 03:37:58;;;;;;;3.72;1.30;;;;;;;;;;5030739;28;20056;-59
2021/05/16 03:40:24;;;;;;;2.63;1.13;;;;;;;;;;5018728;28;20589;-59
2021/05/16 03:42:49;;;;;;;5.53;1.60;;;;;;;;;;5032065;28;20037;-59
2021/05/16 03:45:15;;;;;;;2.60;1.10;;;;;;;;;;5030382;28;20052;-59
2021/05/16 03:47:40;;;;;;;2.88;1.08;;;;;;;;;;5062223;28;20030;-59
2021/05/16 03:50:11;;;;;;;3.05;1.13;;;;;;;;;;5029326;28;20021;-59
2021/05/16 03:52:36;;;;;;;4.13;1.20;;;;;;;;;;5049994;28;20048;-59
2021/05/16 03:55:03;;;;;;;3.75;1.30;;;;;;;;;;5031590;28;20045;-59
2021/05/16 03:57:28;;;;;;;3.15;1.05;;;;;;;;;;5032653;28;20035;-59
2021/05/16 03:59:53;;;;;;;3.20;1.15;;;;;;;;;;5038630;28;20052;-59
2021/05/16 04:02:19;;;;;;;2.55;1.13;;;;;;;;;;5031399;28;20052;-59
2021/05/16 04:04:44;;;;;;;4.40;1.20;;;;;;;;;;5045243;28;20038;-59
2021/05/16 04:07:10;;;;;;;2.60;0.82;;;;;;;;;;5030392;28;20061;-59
2021/05/16 04:09:35;;;;;;;2.53;1.20;;;;;;;;;;5030737;28;20397;-59
2021/05/16 04:12:01;;;;;;;3.42;1.00;;;;;;;;;;5028784;28;20068;-59
2021/05/16 04:14:27;;;;;;;2.47;0.88;;;;;;;;;;5030686;28;20075;-59
2021/05/16 04:16:53;;;;;;;2.20;1.00;;;;;;;;;;5029964;28;20518;-59
2021/05/16 04:19:18;;;;;;;3.47;1.08;;;;;;;;;;5031363;28;20034;-59
2021/05/16 04:21:44;;;;;;;3.55;1.10;;;;;;;;;;5020946;28;20045;-59
2021/05/16 04:24:10;;;;;;;1.38;0.75;;;;;;;;;;5028186;28;20479;-59
2021/05/16 04:26:35;;;;;;;1.75;0.82;;;;;;;;;;5037472;28;20038;-59
2021/05/16 04:29:01;;;;;;;2.75;0.90;;;;;;;;;;5028380;28;20026;-59
2021/05/16 04:31:26;;;;;;;2.33;0.90;;;;;;;;;;5062030;28;20077;-59
2021/05/16 04:33:52;;;;;;;3.40;1.10;;;;;;;;;;5028956;28;20033;-59
2021/05/16 04:36:17;;;;;;;3.20;1.13;;;;;;;;;;5061437;28;20048;-59
2021/05/16 04:38:45;;;;;;;3.42;1.08;;;;;;;;;;5029107;28;20041;-59
2021/05/16 04:41:10;;;;;;;2.33;0.88;;;;;;;;;;5030345;28;20061;-59
2021/05/16 04:43:36;;;;;;;3.63;1.02;;;;;;;;;;5029914;28;20496;-59
2021/05/16 04:46:02;;;;;;;3.25;1.13;;;;;;;;;;5030392;28;20469;-59
2021/05/16 04:48:27;;;;;;;5.47;1.40;;;;;;;;;;5045408;28;20040;-59
2021/05/16 04:50:52;;;;;;;5.03;1.08;;;;;;;;;;5030118;28;20039;-59
2021/05/16 04:53:18;;;;;;;2.95;0.98;;;;;;;;;;5030647;28;20411;-59
2021/05/16 04:55:43;;;;;;;4.85;1.27;;;;;;;;;;5026851;28;20045;-59
2021/05/16 04:58:09;;;;;;;2.28;1.05;;;;;;;;;;5038155;28;20045;-59
2021/05/16 05:00:35;;;;;;;3.20;1.00;;;;;;;;;;5062895;28;20041;-60
2021/05/16 05:03:00;;;;;;;3.30;1.13;;;;;;;;;;5062167;27;20041;-59
2021/05/16 05:05:26;;;;;;;3.85;1.10;;;;;;;;;;5027099;28;20044;-59
2021/05/16 05:07:51;;;;;;;3.47;1.20;;;;;;;;;;5029372;28;20042;-59
2021/05/16 05:10:16;;;;;;;4.47;1.35;;;;;;;;;;5028877;28;20030;-59
2021/05/16 05:12:42;;;;;;;3.00;1.10;;;;;;;;;;5035101;28;20070;-59
2021/05/16 05:15:08;;;;;;;3.40;1.00;;;;;;;;;;5033311;28;20041;-59
2021/05/16 05:17:33;;;;;;;5.00;1.40;;;;;;;;;;5030819;28;20041;-60
2021/05/16 05:19:59;;;;;;;3.30;1.08;;;;;;;;;;5033692;28;20030;-59
2021/05/16 05:22:24;;;;;;;1.90;0.90;;;;;;;;;;5031169;28;20038;-59
2021/05/16 05:24:50;;;;;;;2.90;0.95;;;;;;;;;;5032492;28;20560;-59
2021/05/16 05:27:15;;;;;;;4.30;1.17;;;;;;;;;;5035114;28;20055;-59
2021/05/16 05:29:41;;;;;;;3.53;1.00;;;;;;;;;;5015893;28;20029;-60
2021/05/16 05:32:06;;;;;;;2.85;0.85;;;;;;;;;;5033657;28;20042;-59
2021/05/16 05:34:32;;;;;;;3.60;1.10;;;;;;;;;;5031936;28;20140;-59
2021/05/16 05:36:57;;;;;;;4.30;1.27;;;;;;;;;;5030688;28;20038;-59
2021/05/16 05:39:23;;;;;;;3.03;1.08;;;;;;;;;;5034201;28;20375;-59
2021/05/16 05:41:48;;;;;;;4.25;1.38;;;;;;;;;;5031983;28;20079;-59
2021/05/16 05:44:14;;;;;;;3.33;1.05;;;;;;;;;;5032799;28;20056;-60
2021/05/16 05:46:40;;;;;;;3.63;1.33;;;;;;;;;;5032337;28;20536;-59
2021/05/16 05:49:05;;;;;;;6.07;3.55;;;;;;;;;;5031934;28;20096;-60
2021/05/16 05:51:30;;;;;;;2.33;1.30;;;;;;;;;;5032541;28;20064;-59
2021/05/16 05:53:56;;;;;;;2.45;0.93;;;;;;;;;;5048542;28;20074;-59
2021/05/16 05:56:21;;;;;;;2.28;0.80;;;;;;;;;;5033394;28;20040;-60
2021/05/16 05:58:47;;;;;;;3.13;0.93;;;;;;;;;;5032797;28;20461;-59
2021/05/16 06:01:12;;;;;;;3.17;1.00;;;;;;;;;;5032107;28;20712;-59
2021/05/16 06:03:38;;;;;;;3.42;1.00;;;;;;;;;;5033515;28;20037;-59
2021/05/16 06:06:03;;;;;;;2.75;1.10;;;;;;;;;;5030337;28;20037;-60
2021/05/16 06:08:29;;;;;;;3.80;1.00;;;;;;;;;;5033704;28;20049;-60
2021/05/16 06:10:54;;;;;;;2.22;0.82;;;;;;;;;;5030872;28;20112;-59
2021/05/16 06:13:20;;;;;;;2.80;0.70;;;;;;;;;;5040471;28;20474;-60
2021/05/16 06:15:45;;;;;;;4.18;1.13;;;;;;;;;;5031069;28;20129;-59
2021/05/16 06:18:11;;;;;;;3.88;0.93;;;;;;;;;;5031618;28;20029;-59
2021/05/16 06:20:36;;;;;;;3.95;1.10;;;;;;;;;;5032410;28;20665;-59
2021/05/16 06:23:04;;;;;;;2.17;0.70;;;;;;;;;;5029703;28;20038;-60
2021/05/16 06:25:30;;;;;;;3.70;1.08;;;;;;;;;;5030090;28;20088;-60
2021/05/16 06:27:56;;;;;;;3.70;1.33;;;;;;;;;;5028866;28;20057;-60
2021/05/16 06:30:23;;;;;;;3.75;1.02;;;;;;;;;;5047722;28;20508;-59
2021/05/16 06:32:48;;;;;;;2.80;0.88;;;;;;;;;;5031486;28;20054;-59
2021/05/16 06:35:14;;;;;;;3.55;1.15;;;;;;;;;;5030133;28;20034;-60
2021/05/16 06:37:39;;;;;;;2.83;0.90;;;;;;;;;;5032285;28;20886;-60
2021/05/16 06:40:05;;;;;;;1.60;0.80;;;;;;;;;;5031924;28;20046;-60
2021/05/16 06:42:31;;;;;;;4.50;0.93;;;;;;;;;;5039979;28;20942;-59
2021/05/16 06:44:56;;;;;;;3.65;1.08;;;;;;;;;;5033009;28;20033;-60
2021/05/16 06:47:23;;;;;;;4.65;1.10;;;;;;;;;;5031725;28;20033;-60
2021/05/16 06:49:52;;;;;;;3.50;0.90;;;;;;;;;;5064423;28;20045;-60
2021/05/16 06:52:17;;;;;;;3.08;1.20;;;;;;;;;;5038866;28;20030;-59
2021/05/16 06:54:43;;;;;;;3.67;1.00;;;;;;;;;;5032202;28;20513;-59
2021/05/16 06:57:08;;;;;;;2.97;0.90;;;;;;;;;;5032890;28;20017;-59
2021/05/16 06:59:34;;;;;;;3.88;1.00;;;;;;;;;;5031055;28;20092;-59
2021/05/16 07:01:59;;;;;;;4.47;1.10;;;;;;;;;;5031118;28;20044;-60
2021/05/16 07:04:25;;;;;;;2.97;0.90;;;;;;;;;;5032600;28;20041;-60
2021/05/16 07:06:50;;;;;;;3.50;0.93;;;;;;;;;;5061553;27;20033;-59
2021/05/16 07:09:16;;;;;;;3.08;0.80;;;;;;;;;;5030286;28;20037;-60
2021/05/16 07:11:41;;;;;;;2.60;0.80;;;;;;;;;;5046876;28;20021;-60
2021/05/16 07:14:07;;;;;;;3.67;1.13;;;;;;;;;;5030342;28;20545;-60
2021/05/16 07:16:32;;;;;;;3.22;0.90;;;;;;;;;;5030453;28;20045;-60
2021/05/16 07:18:58;;;;;;;3.15;1.05;;;;;;;;;;5029066;28;20077;-59
2021/05/16 07:21:23;;;;;;;3.35;1.00;;;;;;;;;;5029922;28;20049;-60
2021/05/16 07:23:49;;;;;;;1.90;0.70;;;;;;;;;;5031907;28;20026;-60
2021/05/16 07:26:14;;;;;;;3.67;1.25;;;;;;;;;;5029506;28;20466;-59
2021/05/16 07:28:40;;;;;;;4.15;1.15;;;;;;;;;;5031410;28;20042;-59
2021/05/16 07:31:05;;;;;;;2.75;0.82;;;;;;;;;;5029257;28;20041;-59
2021/05/16 07:33:31;;;;;;;3.50;1.23;;;;;;;;;;5030104;28;20022;-60
2021/05/16 07:35:58;;;;;;;4.40;1.08;;;;;;;;;;5030023;28;20498;-60
2021/05/16 07:38:24;;;;;;;2.80;0.88;;;;;;;;;;5027791;28;20052;-59
2021/05/16 07:40:49;;;;;;;3.53;0.98;;;;;;;;;;5031060;28;20030;-60
2021/05/16 07:43:15;;;;;;;3.05;1.10;;;;;;;;;;5046162;28;20029;-60
2021/05/16 07:45:40;;;;;;;2.83;0.90;;;;;;;;;;5030138;28;20030;-60
2021/05/16 07:48:06;;;;;;;3.88;1.10;;;;;;;;;;5030734;28;20624;-61
2021/05/16 07:50:31;;;;;;;4.93;1.10;;;;;;;;;;5028908;28;20327;-61
2021/05/16 07:52:57;;;;;;;3.40;0.88;;;;;;;;;;5029067;28;20489;-58
2021/05/16 07:55:22;;;;;;;3.60;1.10;;;;;;;;;;5029922;28;20096;-59
2021/05/16 07:57:48;;;;;;;4.97;1.20;;;;;;;;;;5029445;28;20034;-59
2021/05/16 08:00:14;;;;;;;3.75;1.05;;;;;;;;;;5024571;28;20589;-59
2021/05/16 08:02:42;;;;;;;3.72;1.00;;;;;;;;;;5027010;28;20042;-59
2021/05/16 08:05:09;;;;;;;3.13;0.88;;;;;;;;;;5028279;28;20038;-59
2021/05/16 08:07:34;;;;;;;3.85;1.13;;;;;;;;;;5029030;28;20038;-59
2021/05/16 08:10:00;;;;;;;3.13;1.10;;;;;;;;;;5031665;28;20470;-60
2021/05/16 08:12:25;;;;;;;3.83;0.93;;;;;;;;;;5030631;28;20375;-60
2021/05/16 08:14:50;;;;;;;3.53;1.27;;;;;;;;;;5029514;28;21017;-59
2021/05/16 08:17:16;;;;;;;3.28;0.98;;;;;;;;;;5030065;28;20061;-60
2021/05/16 08:19:42;;;;;;;3.83;1.08;;;;;;;;;;5030434;28;20479;-60
2021/05/16 08:22:10;;;;;;;4.10;1.10;;;;;;;;;;5029788;28;20068;-60
2021/05/16 08:24:37;;;;;;;3.88;1.10;;;;;;;;;;5027938;28;20468;-59
2021/05/16 08:27:07;;;;;;;2.85;1.10;;;;;;;;;;5030015;28;20034;-60
2021/05/16 08:29:35;;;;;;;3.80;1.20;;;;;;;;;;5029856;28;20483;-60
2021/05/16 08:32:06;;;;;;;4.13;2.00;;;;;;;;;;5032072;28;20157;-60
2021/05/16 08:34:32;;;;;;;1.83;0.80;;;;;;;;;;5029984;28;20096;-59
2021/05/16 08:36:58;;;;;;;2.28;1.10;;;;;;;;;;5030861;28;20030;-59
2021/05/16 08:39:23;;;;;;;3.40;1.10;;;;;;;;;;5031756;28;20034;-60
2021/05/16 08:41:49;;;;;;;2.28;0.85;;;;;;;;;;5028028;28;20481;-60
2021/05/16 08:44:14;;;;;;;3.40;1.20;;;;;;;;;;5027743;28;20040;-59
2021/05/16 08:46:41;;;;;;;6.10;1.52;;;;;;;;;;5031506;28;20379;-59
2021/05/16 08:49:06;;;;;;;4.30;1.67;;;;;;;;;;5031320;28;20115;-59
2021/05/16 08:51:32;;;;;;;3.70;0.93;;;;;;;;;;5032013;28;20199;-60
2021/05/16 08:53:57;;;;;;;3.28;1.13;;;;;;;;;;5032145;28;20034;-60
2021/05/16 08:56:23;;;;;;;5.03;1.80;;;;;;;;;;5032430;28;20375;-60
2021/05/16 08:58:48;;;;;;;3.58;1.30;;;;;;;;;;5032081;28;20069;-59
2021/05/16 09:01:21;;;;;;;4.80;2.00;;;;;;;;;;5064432;28;20042;-60
2021/05/16 09:03:47;;;;;;;4.50;1.55;;;;;;;;;;5032373;28;20036;-60
2021/05/16 09:06:12;;;;;;;4.57;1.17;;;;;;;;;;5032827;28;20037;-60
2021/05/16 09:08:38;;;;;;;6.10;1.45;;;;;;;;;;5031687;28;20029;-60
2021/05/16 09:11:03;;;;;;;4.70;2.00;;;;;;;;;;5014776;28;20044;-60
2021/05/16 09:13:38;;;;;;;3.53;1.58;;;;;;;;;;5034334;28;20104;-61
2021/05/16 09:16:17;;;;;;;2.80;1.38;;;;;;;;;;5032829;28;20040;-60
2021/05/16 09:18:50;;;;;;;5.22;1.70;;;;;;;;;;5032548;28;20148;-60
2021/05/16 09:21:33;;;;;;;3.78;1.25;;;;;;;;;;5033463;28;20049;-60
2021/05/16 09:24:01;;;;;;;;;;;;;;;;;;5030170;28;20085;-60
2021/05/16 09:26:27;;;;;;;1.98;0.80;;;;;;;;;;5031550;28;19952;-59
2021/05/16 09:28:53;;;;;;;0.82;0.57;;;;;;;;;;5056119;28;20589;-59
2021/05/16 09:31:35;;;;;;;0.95;0.32;;;;;;;;;;5050317;28;20474;-58
2021/05/16 09:34:01;;;;;;;;;;;;;;;;;;5032678;28;20037;-59
2021/05/16 09:36:35;;;;;;;1.33;0.45;;;;;;;;;;5032341;28;19957;-60
2021/05/16 09:39:26;;;;;;;1.60;0.60;;;;;;;;;;5033469;28;20038;-60
2021/05/16 09:42:01;;;;;;;1.27;0.50;;;;;;;;;;5037145;28;20792;-60
2021/05/16 09:44:49;;;;;;;1.65;0.57;;;;;;;;;;5030431;28;20069;-59
2021/05/16 09:47:23;;;;;;;1.60;0.75;;;;;;;;;;5060891;28;20033;-59
2021/05/16 09:49:51;;;;;;;0.77;0.50;;;;;;;;;;5063974;28;20124;-59
2021/05/16 09:52:18;;;;;;;1.52;0.47;;;;;;;;;;5028931;28;20034;-59
2021/05/16 09:55:06;;;;;;;1.38;0.57;;;;;;;;;;5059368;28;20044;-60
2021/05/16 09:57:38;;;;;;;0.82;0.30;;;;;;;;;;5030722;28;20037;-60
2021/05/16 10:00:05;;;;;;;1.35;0.50;;;;;;;;;;5032908;28;20045;-59
2021/05/16 10:02:30;;;;;;;1.45;0.55;;;;;;;;;;5029196;28;20088;-58
2021/05/16 10:04:58;;;;;;;0.30;0.30;;;;;;;;;;5033260;28;20205;-58
2021/05/16 10:07:24;;;;;;;2.47;0.55;;;;;;;;;;5032314;28;20450;-60
2021/05/16 10:09:51;;;;;;;0.65;0.47;;;;;;;;;;5030689;28;20042;-60
2021/05/16 10:12:18;;;;;;;0.93;0.40;;;;;;;;;;5062481;28;20430;-59
2021/05/16 10:14:46;;;;;;;1.95;0.50;;;;;;;;;;5031432;28;20096;-59
2021/05/16 10:17:11;;;;;;;1.98;0.55;;;;;;;;;;5032352;28;20557;-61
2021/05/16 10:19:38;;;;;;;0.95;0.40;;;;;;;;;;5030032;28;20034;-61
2021/05/16 10:22:04;;;;;;;1.17;0.30;;;;;;;;;;5023105;28;20045;-59
2021/05/16 10:24:43;;;;;;;0.75;0.30;;;;;;;;;;5031161;28;20053;-58
2021/05/16 10:27:17;;;;;;;1.55;0.40;;;;;;;;;;5045283;28;20040;-59
2021/05/16 10:29:53;;;;;;;0.43;0.30;;;;;;;;;;5031540;28;20064;-60
2021/05/16 10:32:23;;;;;;;1.48;0.30;;;;;;;;;;5031485;28;20514;-59
2021/05/16 10:34:53;;;;;;;0.93;0.40;;;;;;;;;;5031840;28;20085;-59
2021/05/16 10:37:55;;;;;;;0.35;0.25;;;;;;;;;;5064535;28;20065;-60
2021/05/16 10:40:31;;;;;;;0.55;0.32;;;;;;;;;;5031224;28;20041;-60
2021/05/16 10:43:04;;;;;;;0.40;0.20;;;;;;;;;;5031018;28;20124;-60
2021/05/16 10:45:37;;;;;;;0.82;0.40;;;;;;;;;;5062075;28;20053;-60
2021/05/16 10:48:11;;;;;;;1.00;0.30;;;;;;;;;;5033312;28;20034;-60
2021/05/16 10:50:46;;;;;;;1.55;0.50;;;;;;;;;;5030071;28;20033;-60
2021/05/16 10:53:21;;;;;;;1.63;0.50;;;;;;;;;;5031523;28;20040;-59
2021/05/16 10:56:19;;;;;;;1.23;0.52;;;;;;;;;;5030152;28;20495;-60
2021/05/16 10:58:53;;;;;;;1.88;0.70;;;;;;;;;;5016391;28;20150;-59
2021/05/16 11:01:30;;;;;;;2.30;0.70;;;;;;;;;;5046304;28;20038;-59
2021/05/16 11:04:00;;;;;;;1.50;0.60;;;;;;;;;;5033139;28;20045;-59
2021/05/16 11:06:38;;;;;;;1.58;0.68;;;;;;;;;;5031327;28;20038;-60
2021/05/16 11:09:08;;;;;;;2.15;0.50;;;;;;;;;;5031050;28;20058;-60
2021/05/16 11:11:48;;;;;;;1.63;0.60;;;;;;;;;;5031352;28;20042;-61
2021/05/16 11:14:25;;;;;;;2.60;0.60;;;;;;;;;;5030046;28;20044;-59
2021/05/16 11:16:54;;;;;;;1.15;0.70;;;;;;;;;;5030383;28;20038;-60
2021/05/16 11:19:21;;;;;;;2.08;0.47;;;;;;;;;;5032735;28;20512;-59
2021/05/16 11:21:46;;;;;;;2.38;0.55;;;;;;;;;;5027743;28;20514;-59
2021/05/16 11:24:12;;;;;;;2.22;0.75;;;;;;;;;;5029943;28;20036;-59
2021/05/16 11:26:37;;;;;;;1.83;0.50;;;;;;;;;;5031105;28;20501;-59
2021/05/16 11:29:03;;;;;;;1.88;0.60;;;;;;;;;;5064088;28;20036;-60
2021/05/16 11:31:31;;;;;;;1.00;0.50;;;;;;;;;;5029027;28;20044;-59
2021/05/16 11:34:00;;;;;;;2.80;1.00;;;;;;;;;;5008606;28;20034;-59
2021/05/16 11:36:30;;;;;;;0.68;0.40;;;;;;;;;;5029159;28;20538;-59
2021/05/16 11:38:57;;;;;;;1.17;0.65;;;;;;;;;;5027914;28;20045;-59
2021/05/16 11:41:39;;;;;;;1.08;0.50;;;;;;;;;;5055618;28;20040;-59
2021/05/16 11:44:05;;;;;;;;;;;;;;;;;;5030618;28;20041;-59
2021/05/16 11:46:30;;;;;;;1.40;0.50;;;;;;;;;;5035673;28;19924;-59
2021/05/16 11:48:56;;;;;;;0.75;0.55;;;;;;;;;;5032162;28;20520;-59
2021/05/16 11:51:21;;;;;;;1.38;0.50;;;;;;;;;;5021199;28;20562;-60
2021/05/16 11:53:52;;;;;;;1.27;0.50;;;;;;;;;;5033724;28;20066;-60
2021/05/16 11:56:19;;;;;;;2.10;0.70;;;;;;;;;;5030509;28;20057;-60
2021/05/16 11:59:00;;;;;;;2.20;0.60;;;;;;;;;;5029593;28;20552;-60
2021/05/16 12:01:29;;;;;;;1.70;0.60;;;;;;;;;;5030295;28;20088;-60
2021/05/16 12:04:02;;;;;;;0.75;0.40;;;;;;;;;;5054691;28;20042;-60
2021/05/16 12:06:28;;;;;;;1.25;0.60;;;;;;;;;;5030011;28;20073;-59
2021/05/16 12:08:57;;;;;;;2.33;0.70;;;;;;;;;;5030581;28;20104;-59
2021/05/16 12:11:23;;;;;;;2.15;0.77;;;;;;;;;;5029533;28;20037;-59
2021/05/16 12:13:48;;;;;;;1.05;0.50;;;;;;;;;;5027544;28;20095;-59
2021/05/16 12:16:21;;;;;;;1.30;0.63;;;;;;;;;;5029867;28;20734;-59
2021/05/16 12:18:51;;;;;;;2.42;0.75;;;;;;;;;;5030827;28;20371;-59
2021/05/16 12:21:17;;;;;;;1.83;0.80;;;;;;;;;;5014933;28;20045;-59
2021/05/16 12:24:01;;;;;;;3.08;0.70;;;;;;;;;;5033104;28;20029;-60
2021/05/16 12:26:27;;;;;;;1.70;0.60;;;;;;;;;;5033978;28;20514;-59
2021/05/16 12:28:52;;;;;;;1.80;1.00;;;;;;;;;;5033799;28;20021;-59
2021/05/16 12:31:18;;;;;;;1.92;0.60;;;;;;;;;;5063921;28;20038;-60
2021/05/16 12:33:45;;;;;;;1.73;0.60;;;;;;;;;;5065527;28;20025;-60
2021/05/16 12:36:12;;;;;;;2.33;0.80;;;;;;;;;;5035132;28;20105;-60
2021/05/16 12:39:00;;;;;;;1.98;0.80;;;;;;;;;;5005205;28;20308;-59
2021/05/16 12:41:26;;;;;;;1.95;0.85;;;;;;;;;;5032768;28;20037;-60
2021/05/16 12:44:12;;;;;;;2.25;0.75;;;;;;;;;;5015878;28;20039;-60
2021/05/16 12:46:58;;;;;;;1.30;0.68;;;;;;;;;;5033650;28;20625;-60
2021/05/16 12:49:27;;;;;;;2.15;0.75;;;;;;;;;;5030622;28;20549;-60
2021/05/16 12:51:56;;;;;;;1.20;0.50;;;;;;;;;;5065872;28;20034;-60
2021/05/16 12:54:23;;;;;;;2.45;0.65;;;;;;;;;;5065741;28;20034;-60
2021/05/16 12:56:56;;;;;;;2.35;0.60;;;;;;;;;;5030561;28;20038;-61
2021/05/16 12:59:27;;;;;;;0.70;0.35;;;;;;;;;;5031821;28;20053;-59
2021/05/16 13:02:15;;;;;;;1.90;0.50;;;;;;;;;;5042431;28;20042;-60
2021/05/16 13:04:59;;;;;;;2.08;0.80;;;;;;;;;;5032863;28;20541;-60
2021/05/16 13:07:42;;;;;;;1.92;0.60;;;;;;;;;;5031825;28;20084;-60
2021/05/16 13:10:31;;;;;;;1.38;0.60;;;;;;;;;;5023489;28;20029;-60
2021/05/16 13:13:10;;;;;;;0.50;0.47;;;;;;;;;;5034118;28;20491;-60
2021/05/16 13:15:37;;;;;;;1.90;0.50;;;;;;;;;;5033371;28;20525;-60
2021/05/16 13:18:27;;;;;;;2.10;0.65;;;;;;;;;;5032656;28;20038;-59
2021/05/16 13:20:54;;;;;;;3.38;0.70;;;;;;;;;;5033080;28;20077;-60
2021/05/16 13:23:20;;;;;;;1.98;0.60;;;;;;;;;;5033778;28;20033;-60
2021/05/16 13:25:46;;;;;;;2.00;0.57;;;;;;;;;;5034310;28;20030;-60
2021/05/16 13:28:15;;;;;;;2.05;0.70;;;;;;;;;;5038706;28;20038;-60
2021/05/16 13:30:42;;;;;;;1.92;0.70;;;;;;;;;;5032343;28;20033;-60
2021/05/16 13:33:09;;;;;;;2.28;0.60;;;;;;;;;;5032949;28;20421;-60
2021/05/16 13:35:35;;;;;;;1.55;0.52;;;;;;;;;;5033719;28;20033;-60
2021/05/16 13:38:00;;;;;;;0.73;0.50;;;;;;;;;;5033470;28;20038;-59
2021/05/16 13:40:26;;;;;;;2.20;0.60;;;;;;;;;;5032599;28;20061;-59
2021/05/16 13:42:54;;;;;;;1.40;0.55;;;;;;;;;;5031779;28;20486;-60
2021/05/16 13:45:20;;;;;;;2.08;0.50;;;;;;;;;;5032472;28;20040;-59
2021/05/16 13:47:45;;;;;;;2.75;0.70;;;;;;;;;;5031659;28;20490;-59
2021/05/16 13:50:11;;;;;;;1.10;0.30;;;;;;;;;;5037090;28;20549;-59
2021/05/16 13:52:37;;;;;;;0.82;0.40;;;;;;;;;;5033643;28;20250;-59
2021/05/16 13:55:03;;;;;;;0.85;0.40;;;;;;;;;;5065957;28;20052;-59
2021/05/16 13:57:28;;;;;;;1.60;0.60;;;;;;;;;;5032231;28;20033;-59
2021/05/16 13:59:54;;;;;;;0.45;0.40;;;;;;;;;;5029987;28;20038;-60
2021/05/16 14:02:19;;;;;;;1.13;0.47;;;;;;;;;;5033039;28;20079;-60
2021/05/16 14:04:45;;;;;;;1.55;0.43;;;;;;;;;;5063735;28;20038;-59
2021/05/16 14:07:10;;;;;;;1.52;0.47;;;;;;;;;;5032758;28;20072;-60
2021/05/16 14:09:36;;;;;;;2.25;0.55;;;;;;;;;;5032808;28;20038;-60
2021/05/16 14:12:02;;;;;;;1.17;0.40;;;;;;;;;;5030458;28;20142;-60
2021/05/16 14:14:28;;;;;;;1.67;0.50;;;;;;;;;;5030660;28;20100;-61
2021/05/16 14:16:53;;;;;;;0.85;0.43;;;;;;;;;;5031599;28;20033;-61
2021/05/16 14:19:19;;;;;;;1.30;0.50;;;;;;;;;;5027260;28;20038;-61
2021/05/16 14:21:44;;;;;;;1.23;0.50;;;;;;;;;;5030502;28;20041;-60
2021/05/16 14:24:10;;;;;;;1.20;0.40;;;;;;;;;;5065706;28;20029;-60
2021/05/16 14:26:35;;;;;;;1.40;0.60;;;;;;;;;;5032538;28;20997;-61
2021/05/16 14:29:01;;;;;;;1.55;0.57;;;;;;;;;;5030356;28;20030;-60
2021/05/16 14:31:26;;;;;;;1.50;0.52;;;;;;;;;;5062446;28;20483;-60
2021/05/16 14:33:51;;;;;;;1.45;0.60;;;;;;;;;;5020990;28;20459;-61
2021/05/16 14:36:17;;;;;;;0.50;0.45;;;;;;;;;;5031219;28;20032;-61
2021/05/16 14:38:42;;;;;;;2.05;0.50;;;;;;;;;;5039799;28;20022;-61
2021/05/16 14:41:08;;;;;;;1.75;0.55;;;;;;;;;;5031143;28;20034;-60
2021/05/16 14:43:37;;;;;;;1.65;0.52;;;;;;;;;;5030830;28;20037;-60
2021/05/16 14:46:08;;;;;;;1.50;0.40;;;;;;;;;;5036430;28;20166;-60